Time;durP1;ratioP1;P1;durP2;ratioP2;P2;SDS_P1;SDS_P2;PMS_P1;PMS_P2;Temp;Humidity;BMP_temperature;BMP_pressure;BME280_temperature;BME280_humidity;BME280_pressure;Samples;Min_cycle;Max_cycle;Signal;HPM_P1;HPM_P2
2022/03/08 00:00:24;;;;;;;0.20;0.20;;;;;;;;;;1733578;28;20235;-75
2022/03/08 00:01:15;;;;;;;0.30;0.30;;;;;;;;;;1732219;28;20502;-75
2022/03/08 00:02:07;;;;;;;0.10;0.10;;;;;;;;;;1732855;28;20278;-75
2022/03/08 00:02:58;;;;;;;0.20;0.20;;;;;;;;;;1733149;28;20209;-75
2022/03/08 00:03:50;;;;;;;0.20;0.20;;;;;;;;;;1737765;28;20269;-75
2022/03/08 00:04:42;;;;;;;0.20;0.20;;;;;;;;;;1735849;28;20664;-75
2022/03/08 00:05:34;;;;;;;0.10;0.10;;;;;;;;;;1731051;28;20250;-74
2022/03/08 00:06:28;;;;;;;0.20;0.20;;;;;;;;;;1733112;28;20209;-74
2022/03/08 00:07:20;;;;;;;0.20;0.20;;;;;;;;;;1739229;28;20212;-74
2022/03/08 00:08:12;;;;;;;0.20;0.20;;;;;;;;;;1735416;28;20552;-74
2022/03/08 00:09:05;;;;;;;0.30;0.30;;;;;;;;;;1733392;28;20316;-74
2022/03/08 00:09:56;;;;;;;0.20;0.20;;;;;;;;;;1732651;28;20200;-74
2022/03/08 00:10:48;;;;;;;0.20;0.20;;;;;;;;;;1730682;28;20557;-74
2022/03/08 00:11:40;;;;;;;0.30;0.30;;;;;;;;;;1732789;28;20205;-75
2022/03/08 00:12:33;;;;;;;0.10;0.10;;;;;;;;;;1733792;28;20209;-75
2022/03/08 00:13:24;;;;;;;0.10;0.10;;;;;;;;;;1737495;28;20209;-75
2022/03/08 00:14:16;;;;;;;0.22;0.22;;;;;;;;;;1740609;28;20224;-75
2022/03/08 00:15:08;;;;;;;0.00;0.00;;;;;;;;;;1732860;28;20204;-75
2022/03/08 00:16:01;;;;;;;0.20;0.20;;;;;;;;;;1731254;28;20262;-75
2022/03/08 00:16:52;;;;;;;0.20;0.20;;;;;;;;;;1732476;28;20279;-75
2022/03/08 00:17:44;;;;;;;0.20;0.20;;;;;;;;;;1732791;28;20193;-75
2022/03/08 00:18:38;;;;;;;0.28;0.28;;;;;;;;;;1733650;28;20202;-75
2022/03/08 00:19:30;;;;;;;0.10;0.10;;;;;;;;;;1732857;28;20325;-75
2022/03/08 00:20:21;;;;;;;0.30;0.30;;;;;;;;;;1730894;28;20206;-75
2022/03/08 00:21:14;;;;;;;0.30;0.30;;;;;;;;;;1732856;28;20319;-75
2022/03/08 00:22:05;;;;;;;0.20;0.20;;;;;;;;;;1733501;28;20208;-75
2022/03/08 00:22:57;;;;;;;0.20;0.20;;;;;;;;;;1733654;28;20228;-75
2022/03/08 00:23:48;;;;;;;0.10;0.10;;;;;;;;;;1739711;28;20235;-75
2022/03/08 00:24:40;;;;;;;0.30;0.30;;;;;;;;;;1736661;28;20265;-76
2022/03/08 00:25:31;;;;;;;0.25;0.25;;;;;;;;;;1731229;28;20234;-76
2022/03/08 00:26:24;;;;;;;0.20;0.20;;;;;;;;;;1733044;28;20220;-76
2022/03/08 00:27:16;;;;;;;0.30;0.30;;;;;;;;;;1733512;28;20209;-76
2022/03/08 00:28:09;;;;;;;0.10;0.10;;;;;;;;;;1733044;28;20267;-75
2022/03/08 00:29:00;;;;;;;0.20;0.20;;;;;;;;;;1732823;28;20523;-76
2022/03/08 00:29:52;;;;;;;0.30;0.30;;;;;;;;;;1732411;28;20203;-75
2022/03/08 00:30:43;;;;;;;0.30;0.30;;;;;;;;;;1730642;28;20294;-76
2022/03/08 00:31:35;;;;;;;0.10;0.10;;;;;;;;;;1733049;28;20573;-75
2022/03/08 00:32:27;;;;;;;0.10;0.10;;;;;;;;;;1733453;28;20769;-75
2022/03/08 00:33:20;;;;;;;0.10;0.10;;;;;;;;;;1733119;28;20239;-75
2022/03/08 00:34:11;;;;;;;0.20;0.20;;;;;;;;;;1733558;28;20592;-74
2022/03/08 00:35:03;;;;;;;0.10;0.10;;;;;;;;;;1738215;28;20532;-75
2022/03/08 00:35:55;;;;;;;0.20;0.20;;;;;;;;;;1737484;28;20232;-75
2022/03/08 00:36:47;;;;;;;0.35;0.35;;;;;;;;;;1733352;28;20198;-75
2022/03/08 00:37:38;;;;;;;0.15;0.15;;;;;;;;;;1733907;28;20315;-75
2022/03/08 00:38:31;;;;;;;0.20;0.20;;;;;;;;;;1733299;28;20219;-75
2022/03/08 00:39:22;;;;;;;0.20;0.20;;;;;;;;;;1733016;28;20210;-75
2022/03/08 00:40:14;;;;;;;0.20;0.20;;;;;;;;;;1730979;28;20213;-75
2022/03/08 00:41:05;;;;;;;0.13;0.13;;;;;;;;;;1731092;28;20240;-75
2022/03/08 00:41:57;;;;;;;0.20;0.20;;;;;;;;;;1732696;28;20204;-75
2022/03/08 00:42:50;;;;;;;0.20;0.20;;;;;;;;;;1733019;28;20215;-75
2022/03/08 00:43:42;;;;;;;0.20;0.20;;;;;;;;;;1734397;28;20211;-75
2022/03/08 00:44:33;;;;;;;0.20;0.20;;;;;;;;;;1733300;28;20212;-74
2022/03/08 00:45:26;;;;;;;0.20;0.20;;;;;;;;;;1731306;28;20219;-75
2022/03/08 00:46:17;;;;;;;0.20;0.20;;;;;;;;;;1732391;28;20654;-74
2022/03/08 00:47:10;;;;;;;0.10;0.10;;;;;;;;;;1733032;28;20315;-74
2022/03/08 00:48:01;;;;;;;0.30;0.30;;;;;;;;;;1732197;28;20210;-75
2022/03/08 00:48:53;;;;;;;0.32;0.32;;;;;;;;;;1737278;28;20199;-74
2022/03/08 00:49:44;;;;;;;0.22;0.22;;;;;;;;;;1735934;28;20621;-75
2022/03/08 00:50:38;;;;;;;0.20;0.20;;;;;;;;;;1731783;28;21169;-75
2022/03/08 00:51:29;;;;;;;0.30;0.30;;;;;;;;;;1732099;28;20207;-75
2022/03/08 00:52:22;;;;;;;0.10;0.10;;;;;;;;;;1737774;28;20211;-75
2022/03/08 00:53:13;;;;;;;0.30;0.30;;;;;;;;;;1733140;28;20258;-74
2022/03/08 00:54:05;;;;;;;0.10;0.10;;;;;;;;;;1732765;28;20214;-75
2022/03/08 00:54:56;;;;;;;0.15;0.15;;;;;;;;;;1732467;28;20208;-74
2022/03/08 00:55:49;;;;;;;0.10;0.10;;;;;;;;;;1727780;28;20662;-75
2022/03/08 00:56:40;;;;;;;0.40;0.40;;;;;;;;;;1732795;28;20208;-74
2022/03/08 00:57:32;;;;;;;0.10;0.10;;;;;;;;;;1738995;28;20209;-74
2022/03/08 00:58:25;;;;;;;0.30;0.30;;;;;;;;;;1732650;28;20212;-75
2022/03/08 00:59:17;;;;;;;0.10;0.10;;;;;;;;;;1732723;28;20203;-75
2022/03/08 01:00:09;;;;;;;0.20;0.20;;;;;;;;;;1732134;28;20644;-75
2022/03/08 01:01:02;;;;;;;0.30;0.30;;;;;;;;;;1730534;28;20223;-75
2022/03/08 01:01:53;;;;;;;0.10;0.10;;;;;;;;;;1731747;28;20204;-75
2022/03/08 01:02:45;;;;;;;0.10;0.10;;;;;;;;;;1732352;28;20197;-75
2022/03/08 01:03:36;;;;;;;0.20;0.20;;;;;;;;;;1732904;28;20215;-75
2022/03/08 01:04:29;;;;;;;0.17;0.17;;;;;;;;;;1732609;28;20677;-75
2022/03/08 01:05:20;;;;;;;0.30;0.30;;;;;;;;;;1731043;28;20208;-74
2022/03/08 01:06:13;;;;;;;0.20;0.20;;;;;;;;;;1731681;28;20242;-75
2022/03/08 01:07:05;;;;;;;0.20;0.20;;;;;;;;;;1728866;28;20204;-75
2022/03/08 01:07:58;;;;;;;0.10;0.10;;;;;;;;;;1732302;28;20199;-75
2022/03/08 01:08:49;;;;;;;0.20;0.20;;;;;;;;;;1732991;28;20402;-75
2022/03/08 01:09:42;;;;;;;0.20;0.20;;;;;;;;;;1732121;28;20203;-75
2022/03/08 01:10:33;;;;;;;0.20;0.20;;;;;;;;;;1735597;28;22489;-75
2022/03/08 01:11:25;;;;;;;0.25;0.25;;;;;;;;;;1737882;28;21781;-75
2022/03/08 01:12:17;;;;;;;0.40;0.40;;;;;;;;;;1738057;28;20214;-75
2022/03/08 01:13:09;;;;;;;0.20;0.20;;;;;;;;;;1731306;28;20203;-75
2022/03/08 01:14:02;;;;;;;0.22;0.22;;;;;;;;;;1733055;28;20281;-75
2022/03/08 01:14:54;;;;;;;0.40;0.40;;;;;;;;;;1732762;28;20211;-75
2022/03/08 01:15:45;;;;;;;0.10;0.10;;;;;;;;;;1731097;28;20274;-74
2022/03/08 01:16:38;;;;;;;0.10;0.10;;;;;;;;;;1732568;28;20200;-75
2022/03/08 01:17:29;;;;;;;0.30;0.30;;;;;;;;;;1733110;28;20565;-75
2022/03/08 01:18:21;;;;;;;0.43;0.43;;;;;;;;;;1731971;28;20617;-75
2022/03/08 01:19:12;;;;;;;0.25;0.25;;;;;;;;;;1731983;28;20242;-75
2022/03/08 01:20:05;;;;;;;0.20;0.20;;;;;;;;;;1732034;28;20228;-75
2022/03/08 01:20:58;;;;;;;0.20;0.20;;;;;;;;;;1731097;28;20236;-75
2022/03/08 01:21:50;;;;;;;0.20;0.20;;;;;;;;;;1732654;28;20207;-75
2022/03/08 01:22:42;;;;;;;0.25;0.25;;;;;;;;;;1732533;28;20541;-75
2022/03/08 01:23:34;;;;;;;0.20;0.20;;;;;;;;;;1732534;28;20294;-75
2022/03/08 01:24:25;;;;;;;0.13;0.13;;;;;;;;;;1732268;28;20208;-75
2022/03/08 01:25:21;;;;;;;0.20;0.20;;;;;;;;;;1730630;28;20219;-75
2022/03/08 01:26:14;;;;;;;0.25;0.25;;;;;;;;;;1732821;28;20259;-75
2022/03/08 01:27:06;;;;;;;0.00;0.00;;;;;;;;;;1732812;28;20240;-75
2022/03/08 01:27:57;;;;;;;0.20;0.20;;;;;;;;;;1732491;28;20203;-75
2022/03/08 01:28:49;;;;;;;0.17;0.17;;;;;;;;;;1732246;28;20628;-75
2022/03/08 01:29:42;;;;;;;0.20;0.20;;;;;;;;;;1732303;28;20208;-75
2022/03/08 01:30:34;;;;;;;0.17;0.17;;;;;;;;;;1730535;28;20642;-75
2022/03/08 01:31:25;;;;;;;0.10;0.10;;;;;;;;;;1731821;28;20207;-75
2022/03/08 01:32:18;;;;;;;0.38;0.38;;;;;;;;;;1732854;28;20676;-76
2022/03/08 01:33:09;;;;;;;0.20;0.20;;;;;;;;;;1732318;28;20207;-75
2022/03/08 01:34:02;;;;;;;0.22;0.22;;;;;;;;;;1732646;28;20715;-75
2022/03/08 01:34:53;;;;;;;0.10;0.10;;;;;;;;;;1732275;28;20250;-75
2022/03/08 01:35:46;;;;;;;0.10;0.10;;;;;;;;;;1730890;28;20235;-75
2022/03/08 01:36:37;;;;;;;0.20;0.20;;;;;;;;;;1732526;28;20204;-75
2022/03/08 01:37:29;;;;;;;0.20;0.20;;;;;;;;;;1738984;28;20261;-74
2022/03/08 01:38:20;;;;;;;0.40;0.40;;;;;;;;;;1733010;28;20214;-75
2022/03/08 01:39:12;;;;;;;0.47;0.47;;;;;;;;;;1732693;28;20548;-74
2022/03/08 01:40:04;;;;;;;0.30;0.30;;;;;;;;;;1731682;28;20238;-75
2022/03/08 01:40:57;;;;;;;0.20;0.20;;;;;;;;;;1730517;28;20234;-75
2022/03/08 01:41:48;;;;;;;0.20;0.20;;;;;;;;;;1732326;28;20204;-75
2022/03/08 01:42:41;;;;;;;0.20;0.20;;;;;;;;;;1732642;28;20901;-75
2022/03/08 01:43:32;;;;;;;0.20;0.20;;;;;;;;;;1732034;28;20579;-75
2022/03/08 01:44:25;;;;;;;0.20;0.20;;;;;;;;;;1732005;28;20200;-75
2022/03/08 01:45:22;;;;;;;0.20;0.20;;;;;;;;;;1729813;28;20207;-75
2022/03/08 01:46:14;;;;;;;0.20;0.20;;;;;;;;;;1731784;28;20228;-75
2022/03/08 01:47:06;;;;;;;0.43;0.43;;;;;;;;;;1732821;28;20656;-75
2022/03/08 01:47:58;;;;;;;0.20;0.20;;;;;;;;;;1732808;28;20195;-75
2022/03/08 01:48:49;;;;;;;0.15;0.15;;;;;;;;;;1739510;28;20584;-75
2022/03/08 01:49:41;;;;;;;0.25;0.25;;;;;;;;;;1735488;28;20786;-75
2022/03/08 01:50:33;;;;;;;0.55;0.55;;;;;;;;;;1730651;28;20265;-75
2022/03/08 01:51:25;;;;;;;0.10;0.10;;;;;;;;;;1732540;28;20200;-75
2022/03/08 01:52:17;;;;;;;0.30;0.30;;;;;;;;;;1731149;28;20208;-75
2022/03/08 01:53:09;;;;;;;0.20;0.20;;;;;;;;;;1730428;28;20204;-74
2022/03/08 01:54:00;;;;;;;0.28;0.28;;;;;;;;;;1732807;28;20557;-74
2022/03/08 01:54:53;;;;;;;0.20;0.20;;;;;;;;;;1732371;28;20606;-74
2022/03/08 01:55:45;;;;;;;0.20;0.20;;;;;;;;;;1727455;28;20664;-74
2022/03/08 01:56:37;;;;;;;0.20;0.20;;;;;;;;;;1730972;28;20301;-74
2022/03/08 01:57:28;;;;;;;0.17;0.17;;;;;;;;;;1732767;28;20204;-74
2022/03/08 01:58:20;;;;;;;0.20;0.20;;;;;;;;;;1733130;28;20621;-74
2022/03/08 01:59:12;;;;;;;0.20;0.20;;;;;;;;;;1732601;28;20210;-74
2022/03/08 02:00:05;;;;;;;0.20;0.20;;;;;;;;;;1732731;28;20677;-74
2022/03/08 02:00:58;;;;;;;0.30;0.30;;;;;;;;;;1730425;28;20791;-74
2022/03/08 02:01:50;;;;;;;0.10;0.10;;;;;;;;;;1731971;28;20264;-74
2022/03/08 02:02:42;;;;;;;0.20;0.20;;;;;;;;;;1731632;28;20200;-75
2022/03/08 02:03:35;;;;;;;0.20;0.20;;;;;;;;;;1732696;28;20203;-75
2022/03/08 02:04:26;;;;;;;0.20;0.20;;;;;;;;;;1732161;28;20553;-74
2022/03/08 02:05:21;;;;;;;0.10;0.10;;;;;;;;;;1737112;28;20208;-74
2022/03/08 02:06:12;;;;;;;0.20;0.20;;;;;;;;;;1735997;28;20606;-74
2022/03/08 02:07:05;;;;;;;0.15;0.15;;;;;;;;;;1732775;28;20199;-74
2022/03/08 02:07:56;;;;;;;0.17;0.17;;;;;;;;;;1732027;28;20866;-74
2022/03/08 02:08:48;;;;;;;0.40;0.40;;;;;;;;;;1735457;28;20439;-74
2022/03/08 02:09:39;;;;;;;0.28;0.28;;;;;;;;;;1736053;28;20223;-74
2022/03/08 02:10:32;;;;;;;0.25;0.25;;;;;;;;;;1730417;28;20326;-74
2022/03/08 02:11:23;;;;;;;0.40;0.40;;;;;;;;;;1732256;28;20228;-74
2022/03/08 02:12:16;;;;;;;0.30;0.30;;;;;;;;;;1736332;28;20629;-74
2022/03/08 02:13:07;;;;;;;0.25;0.25;;;;;;;;;;1734473;28;20215;-74
2022/03/08 02:13:59;;;;;;;0.10;0.10;;;;;;;;;;1739702;28;20231;-74
2022/03/08 02:14:50;;;;;;;0.10;0.10;;;;;;;;;;1733908;28;20214;-74
2022/03/08 02:15:48;;;;;;;0.10;0.10;;;;;;;;;;1730413;28;20681;-74
2022/03/08 02:16:41;;;;;;;0.15;0.15;;;;;;;;;;1732204;28;20569;-74
2022/03/08 02:17:33;;;;;;;0.10;0.10;;;;;;;;;;1732517;28;20212;-74
2022/03/08 02:18:24;;;;;;;0.10;0.10;;;;;;;;;;1732083;28;20215;-74
2022/03/08 02:22:23;;;;;;;0.15;0.15;;;;;;;;;;1704393;28;20679;-74
2022/03/08 02:23:14;;;;;;;0.20;0.20;;;;;;;;;;1704212;28;20707;-74
2022/03/08 02:24:07;;;;;;;0.17;0.17;;;;;;;;;;1705028;29;20214;-75
2022/03/08 02:24:58;;;;;;;0.20;0.20;;;;;;;;;;1698976;28;20281;-75
2022/03/08 02:25:50;;;;;;;0.40;0.40;;;;;;;;;;1696203;28;20338;-74
2022/03/08 02:26:42;;;;;;;0.10;0.10;;;;;;;;;;1697214;29;20207;-74
2022/03/08 02:27:34;;;;;;;0.10;0.10;;;;;;;;;;1697601;29;20246;-74
2022/03/08 02:28:25;;;;;;;0.20;0.20;;;;;;;;;;1697596;29;20211;-74
2022/03/08 02:29:17;;;;;;;0.20;0.20;;;;;;;;;;1697925;29;20214;-74
2022/03/08 02:30:09;;;;;;;0.15;0.15;;;;;;;;;;1697447;29;20215;-74
2022/03/08 02:31:02;;;;;;;0.20;0.20;;;;;;;;;;1696378;28;20676;-74
2022/03/08 02:31:53;;;;;;;0.20;0.20;;;;;;;;;;1697955;29;20214;-74
2022/03/08 02:32:46;;;;;;;0.10;0.10;;;;;;;;;;1697797;29;20540;-74
2022/03/08 02:33:38;;;;;;;0.20;0.20;;;;;;;;;;1696843;29;20218;-74
2022/03/08 02:34:30;;;;;;;0.10;0.10;;;;;;;;;;1698310;29;20266;-74
2022/03/08 02:35:23;;;;;;;0.10;0.10;;;;;;;;;;1696549;28;20645;-74
2022/03/08 02:36:15;;;;;;;0.17;0.17;;;;;;;;;;1697684;29;20219;-74
2022/03/08 02:37:08;;;;;;;0.20;0.20;;;;;;;;;;1704836;29;20217;-74
2022/03/08 02:38:03;;;;;;;0.45;0.45;;;;;;;;;;1702081;29;20213;-74
2022/03/08 02:38:54;;;;;;;0.20;0.20;;;;;;;;;;1701528;29;20658;-74
2022/03/08 02:39:46;;;;;;;0.20;0.20;;;;;;;;;;1693550;29;20231;-74
2022/03/08 02:40:40;;;;;;;0.20;0.20;;;;;;;;;;1698828;29;20218;-74
2022/03/08 02:41:32;;;;;;;0.25;0.25;;;;;;;;;;1697413;29;20254;-74
2022/03/08 02:42:23;;;;;;;0.25;0.25;;;;;;;;;;1697916;29;20215;-75
2022/03/08 02:43:15;;;;;;;0.10;0.10;;;;;;;;;;1697369;29;20211;-74
2022/03/08 02:44:06;;;;;;;0.20;0.20;;;;;;;;;;1698073;29;20658;-74
2022/03/08 02:44:59;;;;;;;0.10;0.10;;;;;;;;;;1697670;29;20366;-74
2022/03/08 02:45:50;;;;;;;0.10;0.10;;;;;;;;;;1695299;28;20294;-74
2022/03/08 02:46:42;;;;;;;0.13;0.13;;;;;;;;;;1697904;29;20211;-74
2022/03/08 02:47:33;;;;;;;0.10;0.10;;;;;;;;;;1698142;29;20210;-74
2022/03/08 02:48:27;;;;;;;0.20;0.20;;;;;;;;;;1697258;29;20605;-74
2022/03/08 02:49:18;;;;;;;0.10;0.10;;;;;;;;;;1697890;29;20245;-74
2022/03/08 02:50:12;;;;;;;0.10;0.10;;;;;;;;;;1702334;29;20592;-74
2022/03/08 02:51:03;;;;;;;0.10;0.10;;;;;;;;;;1696587;28;20258;-74
2022/03/08 02:51:56;;;;;;;0.20;0.20;;;;;;;;;;1698888;29;20203;-74
2022/03/08 02:52:51;;;;;;;0.30;0.30;;;;;;;;;;1697525;29;20672;-74
2022/03/08 02:53:44;;;;;;;0.10;0.10;;;;;;;;;;1694899;29;20545;-74
2022/03/08 02:54:36;;;;;;;0.20;0.20;;;;;;;;;;1697118;29;20215;-74
2022/03/08 02:55:29;;;;;;;0.10;0.10;;;;;;;;;;1696110;28;20267;-74
2022/03/08 02:56:21;;;;;;;0.20;0.20;;;;;;;;;;1696889;29;20207;-74
2022/03/08 02:57:13;;;;;;;0.15;0.15;;;;;;;;;;1698291;29;20271;-74
2022/03/08 02:58:05;;;;;;;0.10;0.10;;;;;;;;;;1696360;29;20219;-74
2022/03/08 02:58:57;;;;;;;0.20;0.20;;;;;;;;;;1713709;28;20196;-74
2022/03/08 02:59:49;;;;;;;0.40;0.40;;;;;;;;;;1719119;28;20200;-74
2022/03/08 03:00:41;;;;;;;0.30;0.30;;;;;;;;;;1716772;28;20244;-74
2022/03/08 03:01:33;;;;;;;0.43;0.43;;;;;;;;;;1719377;28;20564;-74
2022/03/08 03:02:25;;;;;;;0.20;0.20;;;;;;;;;;1718980;28;20547;-74
2022/03/08 03:03:16;;;;;;;0.10;0.10;;;;;;;;;;1722216;28;20219;-74
2022/03/08 03:04:08;;;;;;;0.20;0.20;;;;;;;;;;1725322;28;20216;-74
2022/03/08 03:05:00;;;;;;;0.20;0.20;;;;;;;;;;1718875;28;20201;-74
2022/03/08 03:05:52;;;;;;;0.20;0.20;;;;;;;;;;1717234;28;20235;-74
2022/03/08 03:06:44;;;;;;;0.20;0.20;;;;;;;;;;1718400;28;20628;-74
2022/03/08 03:07:36;;;;;;;0.28;0.28;;;;;;;;;;1719176;28;20208;-74
2022/03/08 03:08:27;;;;;;;0.30;0.30;;;;;;;;;;1718146;28;20586;-74
2022/03/08 03:09:21;;;;;;;0.30;0.30;;;;;;;;;;1718748;28;20666;-74
2022/03/08 03:10:13;;;;;;;0.10;0.10;;;;;;;;;;1716860;28;20225;-74
2022/03/08 03:11:05;;;;;;;0.20;0.20;;;;;;;;;;1717152;28;20312;-73
2022/03/08 03:11:56;;;;;;;0.30;0.30;;;;;;;;;;1719703;28;20215;-74
2022/03/08 03:12:48;;;;;;;0.10;0.10;;;;;;;;;;1719239;28;20201;-74
2022/03/08 03:13:40;;;;;;;0.20;0.20;;;;;;;;;;1719500;28;20233;-74
2022/03/08 03:14:31;;;;;;;0.20;0.20;;;;;;;;;;1720014;28;20252;-74
2022/03/08 03:15:24;;;;;;;0.20;0.20;;;;;;;;;;1709938;28;20266;-74
2022/03/08 03:16:15;;;;;;;0.10;0.10;;;;;;;;;;1717015;28;20740;-74
2022/03/08 03:17:07;;;;;;;0.15;0.15;;;;;;;;;;1718205;28;20205;-74
2022/03/08 03:17:59;;;;;;;0.10;0.10;;;;;;;;;;1719829;28;20209;-73
2022/03/08 03:18:52;;;;;;;0.20;0.20;;;;;;;;;;1718626;28;20551;-73
2022/03/08 03:19:43;;;;;;;0.10;0.10;;;;;;;;;;1721301;28;20213;-74
2022/03/08 03:20:35;;;;;;;0.20;0.20;;;;;;;;;;1723534;28;20298;-74
2022/03/08 03:21:27;;;;;;;0.40;0.40;;;;;;;;;;1721705;28;20206;-74
2022/03/08 03:25:39;;;;;;;0.20;0.20;;;;;;;;;;1678061;28;20241;-76
2022/03/08 03:26:30;;;;;;;0.30;0.30;;;;;;;;;;1720177;28;20201;-75
2022/03/08 03:27:22;;;;;;;0.40;0.40;;;;;;;;;;1725928;28;20212;-75
2022/03/08 03:28:13;;;;;;;0.10;0.10;;;;;;;;;;1722013;28;20256;-75
2022/03/08 03:29:06;;;;;;;0.25;0.25;;;;;;;;;;1718110;28;20363;-75
2022/03/08 03:29:57;;;;;;;0.20;0.20;;;;;;;;;;1719518;28;20643;-75
2022/03/08 03:30:49;;;;;;;0.15;0.15;;;;;;;;;;1720869;28;20263;-75
2022/03/08 03:31:40;;;;;;;0.32;0.32;;;;;;;;;;1720453;28;20560;-75
2022/03/08 03:32:32;;;;;;;0.20;0.20;;;;;;;;;;1719467;28;20526;-75
2022/03/08 03:33:24;;;;;;;0.15;0.15;;;;;;;;;;1719654;28;20542;-75
2022/03/08 03:34:16;;;;;;;0.35;0.35;;;;;;;;;;1719144;28;20215;-75
2022/03/08 03:35:08;;;;;;;0.10;0.10;;;;;;;;;;1724063;28;20557;-75
2022/03/08 03:36:01;;;;;;;0.10;0.10;;;;;;;;;;1723155;28;20686;-75
2022/03/08 03:36:52;;;;;;;0.10;0.10;;;;;;;;;;1717847;28;20213;-75
2022/03/08 03:37:44;;;;;;;0.10;0.10;;;;;;;;;;1718721;28;20201;-75
2022/03/08 03:38:36;;;;;;;0.38;0.38;;;;;;;;;;1719910;28;20204;-75
2022/03/08 03:39:28;;;;;;;0.10;0.10;;;;;;;;;;1718647;28;20284;-75
2022/03/08 03:40:19;;;;;;;0.20;0.20;;;;;;;;;;1714465;28;20529;-74
2022/03/08 03:41:13;;;;;;;0.38;0.38;;;;;;;;;;1709051;28;20730;-74
2022/03/08 03:42:05;;;;;;;0.20;0.20;;;;;;;;;;1721859;28;20215;-75
2022/03/08 03:42:57;;;;;;;0.28;0.28;;;;;;;;;;1720304;28;20313;-74
2022/03/08 03:43:48;;;;;;;0.30;0.30;;;;;;;;;;1719153;28;20224;-75
2022/03/08 03:44:40;;;;;;;0.13;0.13;;;;;;;;;;1719356;28;20201;-74
2022/03/08 03:45:31;;;;;;;0.10;0.10;;;;;;;;;;1717076;28;20290;-74
2022/03/08 03:46:24;;;;;;;0.43;0.43;;;;;;;;;;1718768;28;20553;-74
2022/03/08 03:47:15;;;;;;;0.20;0.20;;;;;;;;;;1713300;28;20224;-74
2022/03/08 03:48:07;;;;;;;0.30;0.30;;;;;;;;;;1716724;28;20533;-74
2022/03/08 03:48:58;;;;;;;0.20;0.20;;;;;;;;;;1718976;28;20220;-74
2022/03/08 03:49:50;;;;;;;0.30;0.30;;;;;;;;;;1719785;28;20224;-74
2022/03/08 03:50:42;;;;;;;0.10;0.10;;;;;;;;;;1717834;28;20232;-74
2022/03/08 03:51:34;;;;;;;0.32;0.32;;;;;;;;;;1717570;28;20568;-74
2022/03/08 03:52:25;;;;;;;0.20;0.20;;;;;;;;;;1718565;28;20209;-74
2022/03/08 03:53:17;;;;;;;0.20;0.20;;;;;;;;;;1716560;28;20209;-74
2022/03/08 03:54:08;;;;;;;0.40;0.40;;;;;;;;;;1718519;28;20618;-74
2022/03/08 03:55:01;;;;;;;0.15;0.15;;;;;;;;;;1718763;28;20200;-74
2022/03/08 03:55:52;;;;;;;0.30;0.30;;;;;;;;;;1713271;28;20357;-75
2022/03/08 03:56:45;;;;;;;0.25;0.25;;;;;;;;;;1711610;28;20704;-74
2022/03/08 03:57:37;;;;;;;0.20;0.20;;;;;;;;;;1719068;28;20205;-75
2022/03/08 03:58:30;;;;;;;0.20;0.20;;;;;;;;;;1712389;28;20209;-74
2022/03/08 03:59:21;;;;;;;0.17;0.17;;;;;;;;;;1716907;28;20642;-74
2022/03/08 04:00:14;;;;;;;0.30;0.30;;;;;;;;;;1716860;28;20216;-75
2022/03/08 04:01:06;;;;;;;0.08;0.08;;;;;;;;;;1717379;28;20685;-75
2022/03/08 04:01:58;;;;;;;0.10;0.10;;;;;;;;;;1719052;28;20292;-75
2022/03/08 04:02:49;;;;;;;0.25;0.25;;;;;;;;;;1717939;28;20662;-74
2022/03/08 04:03:41;;;;;;;0.28;0.28;;;;;;;;;;1712072;28;20293;-74
2022/03/08 04:04:33;;;;;;;0.10;0.10;;;;;;;;;;1718201;28;20646;-74
2022/03/08 04:05:25;;;;;;;0.20;0.20;;;;;;;;;;1717004;28;20212;-74
2022/03/08 04:06:16;;;;;;;0.20;0.20;;;;;;;;;;1717786;28;20193;-74
2022/03/08 04:07:08;;;;;;;0.10;0.10;;;;;;;;;;1722787;28;20644;-74
2022/03/08 04:07:59;;;;;;;0.20;0.20;;;;;;;;;;1717786;28;20322;-74
2022/03/08 04:08:51;;;;;;;0.10;0.10;;;;;;;;;;1712525;28;20198;-74
2022/03/08 04:09:43;;;;;;;0.50;0.50;;;;;;;;;;1718310;28;20919;-74
2022/03/08 04:10:35;;;;;;;0.40;0.40;;;;;;;;;;1716748;28;20436;-74
2022/03/08 04:11:26;;;;;;;0.10;0.10;;;;;;;;;;1718314;28;20221;-74
2022/03/08 04:12:19;;;;;;;0.10;0.10;;;;;;;;;;1718234;28;20215;-74
2022/03/08 04:13:10;;;;;;;0.10;0.10;;;;;;;;;;1718698;28;20217;-74
2022/03/08 04:14:03;;;;;;;0.50;0.50;;;;;;;;;;1718832;28;20642;-74
2022/03/08 04:14:54;;;;;;;0.30;0.30;;;;;;;;;;1718284;28;20224;-74
2022/03/08 04:15:47;;;;;;;0.20;0.20;;;;;;;;;;1716867;28;20667;-74
2022/03/08 04:16:38;;;;;;;0.10;0.10;;;;;;;;;;1718479;28;20216;-74
2022/03/08 04:17:30;;;;;;;0.30;0.30;;;;;;;;;;1718865;28;20320;-74
2022/03/08 04:18:21;;;;;;;0.20;0.20;;;;;;;;;;1712858;28;20666;-74
2022/03/08 04:19:13;;;;;;;0.20;0.20;;;;;;;;;;1715223;28;20239;-74
2022/03/08 04:20:05;;;;;;;0.30;0.30;;;;;;;;;;1717926;28;20204;-74
2022/03/08 04:20:57;;;;;;;0.20;0.20;;;;;;;;;;1717053;28;20243;-74
2022/03/08 04:21:49;;;;;;;0.15;0.15;;;;;;;;;;1718185;28;20220;-74
2022/03/08 04:22:41;;;;;;;0.25;0.25;;;;;;;;;;1718994;28;20534;-74
2022/03/08 04:23:32;;;;;;;0.32;0.32;;;;;;;;;;1712919;28;20517;-74
2022/03/08 04:24:25;;;;;;;0.20;0.20;;;;;;;;;;1716698;28;20201;-74
2022/03/08 04:25:20;;;;;;;0.17;0.17;;;;;;;;;;1728349;28;20231;-74
2022/03/08 04:26:12;;;;;;;0.22;0.22;;;;;;;;;;1731237;28;20227;-74
2022/03/08 04:27:04;;;;;;;0.13;0.13;;;;;;;;;;1728868;28;20553;-73
2022/03/08 04:27:57;;;;;;;0.30;0.30;;;;;;;;;;1731563;28;20200;-73
2022/03/08 04:28:48;;;;;;;0.20;0.20;;;;;;;;;;1732162;28;20625;-73
2022/03/08 04:29:40;;;;;;;0.17;0.17;;;;;;;;;;1732760;28;20207;-73
2022/03/08 04:30:32;;;;;;;0.30;0.30;;;;;;;;;;1734065;28;20234;-73
2022/03/08 04:31:24;;;;;;;0.30;0.30;;;;;;;;;;1734427;28;21516;-73
2022/03/08 04:32:15;;;;;;;0.10;0.10;;;;;;;;;;1732184;28;20262;-73
2022/03/08 04:33:08;;;;;;;0.20;0.20;;;;;;;;;;1731717;28;20231;-73
2022/03/08 04:33:59;;;;;;;0.28;0.28;;;;;;;;;;1732232;28;20281;-73
2022/03/08 04:34:51;;;;;;;0.40;0.40;;;;;;;;;;1731820;28;20200;-73
2022/03/08 04:35:42;;;;;;;0.20;0.20;;;;;;;;;;1729879;28;20250;-73
2022/03/08 04:36:34;;;;;;;0.30;0.30;;;;;;;;;;1731287;28;20204;-73
2022/03/08 04:37:26;;;;;;;0.20;0.20;;;;;;;;;;1731278;28;20629;-73
2022/03/08 04:38:18;;;;;;;0.10;0.10;;;;;;;;;;1731569;28;20292;-73
2022/03/08 04:39:09;;;;;;;0.20;0.20;;;;;;;;;;1731856;28;20272;-73
2022/03/08 04:40:01;;;;;;;0.30;0.30;;;;;;;;;;1730884;28;20196;-73
2022/03/08 04:40:52;;;;;;;0.35;0.35;;;;;;;;;;1729381;28;20242;-73
2022/03/08 04:41:45;;;;;;;0.10;0.10;;;;;;;;;;1735875;28;20230;-73
2022/03/08 04:42:36;;;;;;;0.30;0.30;;;;;;;;;;1734865;28;20223;-74
2022/03/08 04:43:29;;;;;;;0.22;0.22;;;;;;;;;;1734665;28;20525;-74
2022/03/08 04:44:21;;;;;;;0.30;0.30;;;;;;;;;;1738606;28;20217;-74
2022/03/08 04:45:13;;;;;;;0.25;0.25;;;;;;;;;;1731159;28;20290;-74
2022/03/08 04:46:04;;;;;;;0.20;0.20;;;;;;;;;;1730506;28;20231;-74
2022/03/08 04:46:57;;;;;;;0.20;0.20;;;;;;;;;;1731691;28;20226;-74
2022/03/08 04:47:48;;;;;;;0.20;0.20;;;;;;;;;;1731513;28;20688;-73
2022/03/08 04:48:40;;;;;;;0.20;0.20;;;;;;;;;;1733296;28;20199;-73
2022/03/08 04:49:31;;;;;;;0.28;0.28;;;;;;;;;;1731736;28;20215;-73
2022/03/08 04:50:23;;;;;;;0.20;0.20;;;;;;;;;;1730930;28;20286;-73
2022/03/08 04:51:15;;;;;;;0.10;0.10;;;;;;;;;;1727718;28;20220;-74
2022/03/08 04:52:07;;;;;;;0.30;0.30;;;;;;;;;;1731541;28;20548;-74
2022/03/08 04:52:58;;;;;;;0.38;0.38;;;;;;;;;;1732742;28;20214;-74
2022/03/08 04:53:50;;;;;;;0.20;0.20;;;;;;;;;;1733419;28;20286;-74
2022/03/08 04:54:42;;;;;;;0.20;0.20;;;;;;;;;;1732642;28;20208;-73
2022/03/08 04:55:34;;;;;;;0.28;0.28;;;;;;;;;;1729093;28;20242;-73
2022/03/08 04:56:25;;;;;;;0.20;0.20;;;;;;;;;;1730119;28;20203;-73
2022/03/08 04:57:17;;;;;;;0.40;0.40;;;;;;;;;;1732408;28;20532;-74
2022/03/08 04:58:09;;;;;;;0.10;0.10;;;;;;;;;;1732880;28;20633;-74
2022/03/08 04:59:02;;;;;;;0.30;0.30;;;;;;;;;;1732785;28;20533;-74
2022/03/08 04:59:53;;;;;;;0.20;0.20;;;;;;;;;;1732760;28;20210;-74
2022/03/08 05:00:45;;;;;;;0.20;0.20;;;;;;;;;;1731243;28;20296;-74
2022/03/08 05:01:37;;;;;;;0.20;0.20;;;;;;;;;;1732351;28;20228;-74
2022/03/08 05:02:29;;;;;;;0.20;0.20;;;;;;;;;;1739389;28;20210;-74
2022/03/08 05:03:20;;;;;;;0.20;0.20;;;;;;;;;;1733357;28;20621;-73
2022/03/08 05:04:12;;;;;;;0.30;0.30;;;;;;;;;;1733503;28;20214;-74
2022/03/08 05:05:03;;;;;;;0.15;0.15;;;;;;;;;;1732547;28;20207;-74
2022/03/08 05:05:56;;;;;;;0.20;0.20;;;;;;;;;;1731302;28;20231;-74
2022/03/08 05:06:47;;;;;;;0.13;0.13;;;;;;;;;;1732459;28;20640;-74
2022/03/08 05:07:40;;;;;;;0.08;0.08;;;;;;;;;;1732567;28;20669;-74
2022/03/08 05:08:31;;;;;;;0.20;0.20;;;;;;;;;;1737362;28;20207;-74
2022/03/08 05:09:23;;;;;;;0.20;0.20;;;;;;;;;;1739041;28;20234;-74
2022/03/08 05:10:14;;;;;;;0.10;0.10;;;;;;;;;;1731113;28;20211;-74
2022/03/08 05:11:06;;;;;;;0.20;0.20;;;;;;;;;;1732234;28;20239;-74
2022/03/08 05:11:58;;;;;;;0.13;0.13;;;;;;;;;;1735594;28;20199;-74
2022/03/08 05:12:50;;;;;;;0.25;0.25;;;;;;;;;;1737884;28;20620;-74
2022/03/08 05:13:41;;;;;;;0.15;0.15;;;;;;;;;;1733005;28;20207;-74
2022/03/08 05:14:35;;;;;;;0.20;0.20;;;;;;;;;;1731579;28;20211;-74
2022/03/08 05:15:26;;;;;;;0.20;0.20;;;;;;;;;;1730884;28;20664;-74
2022/03/08 05:16:18;;;;;;;0.40;0.40;;;;;;;;;;1732564;28;20602;-74
2022/03/08 05:17:09;;;;;;;0.32;0.32;;;;;;;;;;1733239;28;20203;-74
2022/03/08 05:18:02;;;;;;;0.20;0.20;;;;;;;;;;1732013;28;20199;-74